Börgöndi repülõtér

Információk

Albatrosz Repülő Egyesület
8000 Székesfehérvár,
Radványi utca 6.

Adószám:
19092908-2-07

Bankszámla szám:
Budapest Bank
10102952-01361819-00000001

Telefon: +36 30 9598-897

Telephey: Börgönd repülőtér

LHBP METAR/TAF

[source: ADDS]
METAR
TAF LHBP 211100Z 2112/2212 12011KT 9999 SCT033 SCT065 TEMPO 2114/2121 VRB15G25KT 5000 SHRA TSRA SCT020CB BKN025 BECMG 2116/2119 10005KT TEMPO 2123/2206 4000 BR SCT005 BKN020 BECMG 2205/2207 SCT020 BKN040 BKN070 TEMPO 2207/2212 5000 SHRA BR FEW010CB BKN020 TAF
TAF LHBP 211100Z 2112/2212 12011KT 9999 SCT033 SCT065 TEMPO 2114/2121 VRB15G25KT 5000 SHRA TSRA SCT020CB BKN025 BECMG 2116/2119 10005KT TEMPO 2123/2206 4000 BR SCT005 BKN020 BECMG 2205/2207 SCT020 BKN040 BKN070 TEMPO 2207/2212 5000 SHRA BR FEW010CB BKN020 =
SR / SS: 03:48 / 17:44 UTC (Börgönd 2014-04-21)
Hungarian Chinese (Simplified) Croatian Czech English Finnish French German Hebrew Italian Japanese Polish Portuguese Romanian Russian Serbian Slovak Slovenian Spanish

Belépés tagoknak